sensor_id;sensor_type;location;lat;lon;timestamp;pressure;altitude;pressure_sealevel;temperature;humidity
61568;BME280;47462;59.172;17.196;2024-02-26T00:00:31;100415.50;;;0.64;97.57
61568;BME280;47462;59.172;17.196;2024-02-26T00:02:57;100414.63;;;0.59;98.39
61568;BME280;47462;59.172;17.196;2024-02-26T00:05:22;100406.13;;;0.66;98.51
61568;BME280;47462;59.172;17.196;2024-02-26T00:07:48;100406.97;;;0.68;98.40
61568;BME280;47462;59.172;17.196;2024-02-26T00:10:14;100409.53;;;0.66;98.86
61568;BME280;47462;59.172;17.196;2024-02-26T00:12:39;100420.72;;;0.76;99.03
61568;BME280;47462;59.172;17.196;2024-02-26T00:15:06;100416.44;;;0.74;98.71
61568;BME280;47462;59.172;17.196;2024-02-26T00:17:31;100424.97;;;0.71;98.49
61568;BME280;47462;59.172;17.196;2024-02-26T00:19:57;100425.75;;;0.62;98.14
61568;BME280;47462;59.172;17.196;2024-02-26T00:22:22;100426.66;;;0.66;99.12
61568;BME280;47462;59.172;17.196;2024-02-26T00:24:47;100421.56;;;0.72;99.03
61568;BME280;47462;59.172;17.196;2024-02-26T00:27:13;100426.72;;;0.74;99.08
61568;BME280;47462;59.172;17.196;2024-02-26T00:29:38;100435.25;;;0.69;98.95
61568;BME280;47462;59.172;17.196;2024-02-26T00:32:04;100434.25;;;0.57;98.42
61568;BME280;47462;59.172;17.196;2024-02-26T00:34:29;100428.28;;;0.56;98.88
61568;BME280;47462;59.172;17.196;2024-02-26T00:36:55;100424.88;;;0.59;99.28
61568;BME280;47462;59.172;17.196;2024-02-26T00:39:20;100429.16;;;0.63;99.61
61568;BME280;47462;59.172;17.196;2024-02-26T00:41:45;100424.09;;;0.66;99.57
61568;BME280;47462;59.172;17.196;2024-02-26T00:44:11;100411.22;;;0.64;99.46
61568;BME280;47462;59.172;17.196;2024-02-26T00:46:36;100412.13;;;0.68;99.56
61568;BME280;47462;59.172;17.196;2024-02-26T00:49:02;100413.88;;;0.72;99.59
61568;BME280;47462;59.172;17.196;2024-02-26T00:51:28;100415.56;;;0.76;99.84
61568;BME280;47462;59.172;17.196;2024-02-26T00:53:54;100409.63;;;0.82;100.00
61568;BME280;47462;59.172;17.196;2024-02-26T00:56:19;100417.38;;;0.86;100.00
61568;BME280;47462;59.172;17.196;2024-02-26T00:58:45;100403.69;;;0.89;100.00
61568;BME280;47462;59.172;17.196;2024-02-26T01:01:10;100408.00;;;0.99;100.00
61568;BME280;47462;59.172;17.196;2024-02-26T01:03:35;100407.22;;;1.08;100.00
61568;BME280;47462;59.172;17.196;2024-02-26T01:06:01;100400.34;;;1.10;100.00
61568;BME280;47462;59.172;17.196;2024-02-26T01:08:26;100411.56;;;1.17;100.00
61568;BME280;47462;59.172;17.196;2024-02-26T01:10:51;100411.50;;;1.09;99.95
61568;BME280;47462;59.172;17.196;2024-02-26T01:13:17;100411.50;;;1.06;100.00
61568;BME280;47462;59.172;17.196;2024-02-26T01:15:43;100406.34;;;1.06;99.51
61568;BME280;47462;59.172;17.196;2024-02-26T01:18:09;100402.88;;;1.01;99.72
61568;BME280;47462;59.172;17.196;2024-02-26T01:20:34;100402.00;;;0.96;100.00
61568;BME280;47462;59.172;17.196;2024-02-26T01:23:00;100403.72;;;0.94;99.60
61568;BME280;47462;59.172;17.196;2024-02-26T01:25:25;100399.44;;;0.94;100.00
61568;BME280;47462;59.172;17.196;2024-02-26T01:27:50;100401.16;;;0.95;100.00
61568;BME280;47462;59.172;17.196;2024-02-26T01:30:16;100406.31;;;0.97;100.00
61568;BME280;47462;59.172;17.196;2024-02-26T01:32:42;100403.78;;;1.03;100.00
61568;BME280;47462;59.172;17.196;2024-02-26T01:35:08;100402.06;;;1.03;100.00
61568;BME280;47462;59.172;17.196;2024-02-26T01:37:35;100414.94;;;1.10;100.00
61568;BME280;47462;59.172;17.196;2024-02-26T01:40:01;100411.53;;;1.15;100.00
61568;BME280;47462;59.172;17.196;2024-02-26T01:42:29;100414.94;;;1.14;100.00
61568;BME280;47462;59.172;17.196;2024-02-26T01:44:54;100415.81;;;1.15;100.00
61568;BME280;47462;59.172;17.196;2024-02-26T01:47:20;100412.38;;;1.14;100.00
61568;BME280;47462;59.172;17.196;2024-02-26T01:49:45;100411.56;;;1.17;100.00
61568;BME280;47462;59.172;17.196;2024-02-26T01:52:11;100403.81;;;1.12;100.00
61568;BME280;47462;59.172;17.196;2024-02-26T01:54:37;100402.09;;;1.14;100.00
61568;BME280;47462;59.172;17.196;2024-02-26T01:57:05;100410.66;;;1.13;100.00
61568;BME280;47462;59.172;17.196;2024-02-26T01:59:32;100411.56;;;1.17;100.00
61568;BME280;47462;59.172;17.196;2024-02-26T02:02:01;100414.16;;;1.21;100.00
61568;BME280;47462;59.172;17.196;2024-02-26T02:04:29;100415.84;;;1.24;100.00
61568;BME280;47462;59.172;17.196;2024-02-26T02:06:55;100422.75;;;1.30;100.00
61568;BME280;47462;59.172;17.196;2024-02-26T02:09:22;100427.88;;;1.28;100.00
61568;BME280;47462;59.172;17.196;2024-02-26T02:11:48;100430.41;;;1.19;100.00
61568;BME280;47462;59.172;17.196;2024-02-26T02:14:14;100426.09;;;1.15;99.71
61568;BME280;47462;59.172;17.196;2024-02-26T02:16:39;100412.38;;;1.11;99.94
61568;BME280;47462;59.172;17.196;2024-02-26T02:19:05;100402.06;;;1.05;99.89
61568;BME280;47462;59.172;17.196;2024-02-26T02:21:30;100391.75;;;0.99;99.78
61568;BME280;47462;59.172;17.196;2024-02-26T02:23:56;100391.72;;;0.96;99.79
61568;BME280;47462;59.172;17.196;2024-02-26T02:26:21;100391.72;;;0.96;100.00
61568;BME280;47462;59.172;17.196;2024-02-26T02:28:47;100396.06;;;1.01;100.00
61568;BME280;47462;59.172;17.196;2024-02-26T02:31:14;100402.06;;;1.03;100.00
61568;BME280;47462;59.172;17.196;2024-02-26T02:33:40;100400.34;;;1.07;99.44
61568;BME280;47462;59.172;17.196;2024-02-26T02:36:05;100390.03;;;1.04;99.55
61568;BME280;47462;59.172;17.196;2024-02-26T02:38:35;100385.78;;;1.03;99.90
61568;BME280;47462;59.172;17.196;2024-02-26T02:41:00;100396.91;;;1.02;99.84
61568;BME280;47462;59.172;17.196;2024-02-26T02:43:26;100396.06;;;1.01;100.00
61568;BME280;47462;59.172;17.196;2024-02-26T02:45:51;100396.06;;;1.03;100.00
61568;BME280;47462;59.172;17.196;2024-02-26T02:48:16;100405.41;;;0.95;99.50
61568;BME280;47462;59.172;17.196;2024-02-26T02:50:42;100401.16;;;0.94;100.00
61568;BME280;47462;59.172;17.196;2024-02-26T02:53:07;100408.00;;;0.99;100.00
61568;BME280;47462;59.172;17.196;2024-02-26T03:18:21;100444.78;;;0.86;99.92
61568;BME280;47462;59.172;17.196;2024-02-26T03:20:46;100437.06;;;0.86;100.00
61568;BME280;47462;59.172;17.196;2024-02-26T03:23:12;100437.94;;;0.91;100.00
61568;BME280;47462;59.172;17.196;2024-02-26T03:25:44;100428.53;;;0.93;100.00
61568;BME280;47462;59.172;17.196;2024-02-26T03:28:11;100431.16;;;1.01;100.00
61568;BME280;47462;59.172;17.196;2024-02-26T03:30:37;100427.72;;;1.00;100.00
61568;BME280;47462;59.172;17.196;2024-02-26T03:33:03;100421.75;;;1.01;100.00
61568;BME280;47462;59.172;17.196;2024-02-26T03:35:28;100416.63;;;1.03;100.00
61568;BME280;47462;59.172;17.196;2024-02-26T03:37:53;100407.19;;;1.02;100.00
61568;BME280;47462;59.172;17.196;2024-02-26T03:40:19;100401.19;;;1.01;100.00
61568;BME280;47462;59.172;17.196;2024-02-26T03:42:45;100408.03;;;1.02;100.00
61568;BME280;47462;59.172;17.196;2024-02-26T03:45:10;100403.75;;;1.00;100.00
61568;BME280;47462;59.172;17.196;2024-02-26T03:47:37;100419.22;;;1.09;100.00
61568;BME280;47462;59.172;17.196;2024-02-26T03:50:03;100416.69;;;1.14;100.00
61568;BME280;47462;59.172;17.196;2024-02-26T03:52:30;100411.53;;;1.12;100.00
61568;BME280;47462;59.172;17.196;2024-02-26T03:54:55;100420.09;;;1.14;100.00
61568;BME280;47462;59.172;17.196;2024-02-26T03:57:20;100412.41;;;1.16;100.00
61568;BME280;47462;59.172;17.196;2024-02-26T03:59:46;100412.41;;;1.16;100.00
61568;BME280;47462;59.172;17.196;2024-02-26T04:02:11;100396.94;;;1.11;100.00
61568;BME280;47462;59.172;17.196;2024-02-26T04:04:36;100398.69;;;1.12;100.00
61568;BME280;47462;59.172;17.196;2024-02-26T04:07:02;100397.81;;;1.18;100.00
61568;BME280;47462;59.172;17.196;2024-02-26T04:09:27;100395.28;;;1.25;100.00
61568;BME280;47462;59.172;17.196;2024-02-26T04:11:52;100380.75;;;1.24;100.00
61568;BME280;47462;59.172;17.196;2024-02-26T04:14:18;100385.00;;;1.22;100.00
61568;BME280;47462;59.172;17.196;2024-02-26T04:16:43;100390.13;;;1.22;100.00
61568;BME280;47462;59.172;17.196;2024-02-26T04:19:08;100385.03;;;1.29;100.00
61568;BME280;47462;59.172;17.196;2024-02-26T04:21:34;100377.34;;;1.33;100.00
61568;BME280;47462;59.172;17.196;2024-02-26T04:24:00;100373.94;;;1.39;100.00
61568;BME280;47462;59.172;17.196;2024-02-26T04:26:28;100374.84;;;1.47;100.00
61568;BME280;47462;59.172;17.196;2024-02-26T04:28:54;100367.97;;;1.52;100.00
61568;BME280;47462;59.172;17.196;2024-02-26T04:31:19;100371.41;;;1.60;100.00
61568;BME280;47462;59.172;17.196;2024-02-26T04:33:45;100366.28;;;1.67;100.00
61568;BME280;47462;59.172;17.196;2024-02-26T04:36:14;100365.44;;;1.69;100.00
61568;BME280;47462;59.172;17.196;2024-02-26T04:38:43;100372.31;;;1.72;100.00
61568;BME280;47462;59.172;17.196;2024-02-26T04:41:09;100376.59;;;1.73;100.00
61568;BME280;47462;59.172;17.196;2024-02-26T04:43:34;100378.31;;;1.71;100.00
61568;BME280;47462;59.172;17.196;2024-02-26T04:45:59;100378.31;;;1.75;100.00
61568;BME280;47462;59.172;17.196;2024-02-26T04:48:25;100381.75;;;1.79;100.00
61568;BME280;47462;59.172;17.196;2024-02-26T04:50:50;100377.50;;;1.83;100.00
61568;BME280;47462;59.172;17.196;2024-02-26T04:53:15;100383.50;;;1.88;100.00
61568;BME280;47462;59.172;17.196;2024-02-26T04:55:42;100381.75;;;1.88;100.00
61568;BME280;47462;59.172;17.196;2024-02-26T04:58:07;100386.06;;;1.91;100.00
61568;BME280;47462;59.172;17.196;2024-02-26T05:00:32;100381.78;;;1.90;100.00
61568;BME280;47462;59.172;17.196;2024-02-26T05:02:58;100384.34;;;1.96;100.00
61568;BME280;47462;59.172;17.196;2024-02-26T05:05:23;100393.81;;;2.02;100.00
61568;BME280;47462;59.172;17.196;2024-02-26T05:07:48;100400.69;;;2.06;100.00
61568;BME280;47462;59.172;17.196;2024-02-26T05:10:14;100406.69;;;2.09;100.00
61568;BME280;47462;59.172;17.196;2024-02-26T05:12:39;100399.84;;;2.13;100.00
61568;BME280;47462;59.172;17.196;2024-02-26T05:15:08;100405.00;;;2.11;100.00
61568;BME280;47462;59.172;17.196;2024-02-26T05:17:33;100402.41;;;2.10;100.00
61568;BME280;47462;59.172;17.196;2024-02-26T05:19:58;100405.84;;;2.06;100.00
61568;BME280;47462;59.172;17.196;2024-02-26T05:22:24;100404.97;;;2.05;100.00
61568;BME280;47462;59.172;17.196;2024-02-26T05:24:49;100404.09;;;2.05;100.00
61568;BME280;47462;59.172;17.196;2024-02-26T05:27:16;100415.28;;;2.07;100.00
61568;BME280;47462;59.172;17.196;2024-02-26T05:29:41;100414.41;;;2.08;100.00
61568;BME280;47462;59.172;17.196;2024-02-26T05:32:06;100429.00;;;2.10;100.00
61568;BME280;47462;59.172;17.196;2024-02-26T05:34:32;100435.00;;;2.05;100.00
61568;BME280;47462;59.172;17.196;2024-02-26T05:36:58;100432.41;;;1.94;100.00
61568;BME280;47462;59.172;17.196;2024-02-26T05:39:23;100433.22;;;1.88;100.00
61568;BME280;47462;59.172;17.196;2024-02-26T05:41:49;100432.38;;;1.82;100.00
61568;BME280;47462;59.172;17.196;2024-02-26T05:44:14;100433.22;;;1.82;100.00
61568;BME280;47462;59.172;17.196;2024-02-26T05:46:41;100424.63;;;1.77;100.00
61568;BME280;47462;59.172;17.196;2024-02-26T05:49:07;100436.66;;;1.78;100.00
61568;BME280;47462;59.172;17.196;2024-02-26T05:51:32;100421.19;;;1.69;100.00
61568;BME280;47462;59.172;17.196;2024-02-26T05:53:58;100432.34;;;1.74;100.00
61568;BME280;47462;59.172;17.196;2024-02-26T05:56:23;100429.78;;;1.74;100.00
61568;BME280;47462;59.172;17.196;2024-02-26T05:58:49;100434.09;;;1.80;100.00
61568;BME280;47462;59.172;17.196;2024-02-26T06:01:17;100437.53;;;1.88;100.00
61568;BME280;47462;59.172;17.196;2024-02-26T06:03:43;100438.38;;;1.91;100.00
61568;BME280;47462;59.172;17.196;2024-02-26T06:06:10;100446.97;;;1.87;100.00
61568;BME280;47462;59.172;17.196;2024-02-26T06:08:35;100443.53;;;1.88;100.00
61568;BME280;47462;59.172;17.196;2024-02-26T06:11:05;100447.84;;;1.92;100.00
61568;BME280;47462;59.172;17.196;2024-02-26T06:13:31;100447.84;;;1.94;100.00
61568;BME280;47462;59.172;17.196;2024-02-26T06:15:57;100449.56;;;1.98;100.00
61568;BME280;47462;59.172;17.196;2024-02-26T06:18:22;100459.88;;;2.00;100.00
61568;BME280;47462;59.172;17.196;2024-02-26T06:20:47;100461.59;;;1.99;100.00
61568;BME280;47462;59.172;17.196;2024-02-26T06:23:13;100461.59;;;1.99;100.00
61568;BME280;47462;59.172;17.196;2024-02-26T06:25:38;100460.72;;;1.95;100.00
61568;BME280;47462;59.172;17.196;2024-02-26T06:28:04;100469.31;;;2.02;100.00
61568;BME280;47462;59.172;17.196;2024-02-26T06:30:30;100464.16;;;1.99;100.00
61568;BME280;47462;59.172;17.196;2024-02-26T06:32:55;100460.72;;;2.05;100.00
61568;BME280;47462;59.172;17.196;2024-02-26T06:35:20;100465.88;;;2.09;100.00
61568;BME280;47462;59.172;17.196;2024-02-26T06:37:45;100467.63;;;2.15;100.00
61568;BME280;47462;59.172;17.196;2024-02-26T06:40:11;100467.63;;;2.21;100.00
61568;BME280;47462;59.172;17.196;2024-02-26T06:42:36;100469.38;;;2.19;100.00
61568;BME280;47462;59.172;17.196;2024-02-26T06:45:03;100477.94;;;2.21;99.89
61568;BME280;47462;59.172;17.196;2024-02-26T06:47:29;100467.63;;;2.20;100.00
61568;BME280;47462;59.172;17.196;2024-02-26T06:49:54;100472.78;;;2.20;100.00
61568;BME280;47462;59.172;17.196;2024-02-26T06:52:23;100480.50;;;2.20;100.00
61568;BME280;47462;59.172;17.196;2024-02-26T06:54:50;100479.66;;;2.19;100.00
61568;BME280;47462;59.172;17.196;2024-02-26T06:57:16;100483.91;;;2.16;99.92
61568;BME280;47462;59.172;17.196;2024-02-26T06:59:41;100483.06;;;2.15;100.00
61568;BME280;47462;59.172;17.196;2024-02-26T07:02:11;100491.66;;;2.17;100.00
61568;BME280;47462;59.172;17.196;2024-02-26T07:04:36;100481.34;;;2.20;100.00
61568;BME280;47462;59.172;17.196;2024-02-26T07:07:02;100494.25;;;2.25;100.00
61568;BME280;47462;59.172;17.196;2024-02-26T07:09:27;100483.94;;;2.25;100.00
61568;BME280;47462;59.172;17.196;2024-02-26T07:11:53;100491.66;;;2.28;100.00
61568;BME280;47462;59.172;17.196;2024-02-26T07:14:18;100495.13;;;2.28;99.69
61568;BME280;47462;59.172;17.196;2024-02-26T07:16:43;100488.25;;;2.30;99.68
61568;BME280;47462;59.172;17.196;2024-02-26T07:19:09;100493.41;;;2.32;99.44
61568;BME280;47462;59.172;17.196;2024-02-26T07:21:34;100477.09;;;2.25;99.61
61568;BME280;47462;59.172;17.196;2024-02-26T07:23:59;100491.69;;;2.34;99.85
61568;BME280;47462;59.172;17.196;2024-02-26T07:26:25;100502.00;;;2.42;99.86
61568;BME280;47462;59.172;17.196;2024-02-26T07:28:51;100502.88;;;2.44;99.78
61568;BME280;47462;59.172;17.196;2024-02-26T07:31:20;100491.69;;;2.39;99.22
61568;BME280;47462;59.172;17.196;2024-02-26T07:33:45;100491.69;;;2.43;99.54
61568;BME280;47462;59.172;17.196;2024-02-26T07:36:11;100503.72;;;2.44;99.62
61568;BME280;47462;59.172;17.196;2024-02-26T07:38:36;100501.16;;;2.43;99.71
61568;BME280;47462;59.172;17.196;2024-02-26T07:41:02;100500.31;;;2.47;99.74
61568;BME280;47462;59.172;17.196;2024-02-26T07:43:28;100500.31;;;2.50;99.57
61568;BME280;47462;59.172;17.196;2024-02-26T07:45:53;100502.88;;;2.50;99.47
61568;BME280;47462;59.172;17.196;2024-02-26T07:48:19;100499.44;;;2.49;99.73
61568;BME280;47462;59.172;17.196;2024-02-26T07:50:44;100511.47;;;2.55;99.38
61568;BME280;47462;59.172;17.196;2024-02-26T07:53:10;100514.88;;;2.56;99.75
61568;BME280;47462;59.172;17.196;2024-02-26T07:55:35;100514.03;;;2.58;99.32
61568;BME280;47462;59.172;17.196;2024-02-26T07:58:00;100502.00;;;2.57;99.41
61568;BME280;47462;59.172;17.196;2024-02-26T08:00:26;100503.75;;;2.61;99.43
61568;BME280;47462;59.172;17.196;2024-02-26T08:02:51;100511.47;;;2.69;99.74
61568;BME280;47462;59.172;17.196;2024-02-26T08:05:17;100502.91;;;2.73;99.81
61568;BME280;47462;59.172;17.196;2024-02-26T08:07:42;100517.50;;;2.77;99.58
61568;BME280;47462;59.172;17.196;2024-02-26T08:10:08;100520.94;;;2.85;99.63
61568;BME280;47462;59.172;17.196;2024-02-26T08:12:33;100520.09;;;2.87;99.36
61568;BME280;47462;59.172;17.196;2024-02-26T08:14:59;100522.66;;;2.91;99.03
61568;BME280;47462;59.172;17.196;2024-02-26T08:17:25;100533.81;;;2.99;99.23
61568;BME280;47462;59.172;17.196;2024-02-26T08:19:50;100539.81;;;3.03;98.73
61568;BME280;47462;59.172;17.196;2024-02-26T08:22:16;100551.00;;;3.07;98.71
61568;BME280;47462;59.172;17.196;2024-02-26T08:24:43;100561.31;;;3.03;98.47
61568;BME280;47462;59.172;17.196;2024-02-26T08:27:09;100557.03;;;3.09;98.77
61568;BME280;47462;59.172;17.196;2024-02-26T08:29:35;100557.00;;;3.18;98.98
61568;BME280;47462;59.172;17.196;2024-02-26T08:32:00;100555.28;;;3.28;98.64
61568;BME280;47462;59.172;17.196;2024-02-26T08:34:26;100563.00;;;3.48;98.53
61568;BME280;47462;59.172;17.196;2024-02-26T08:36:51;100565.56;;;3.57;98.30
61568;BME280;47462;59.172;17.196;2024-02-26T08:39:17;100562.06;;;3.70;98.27
61568;BME280;47462;59.172;17.196;2024-02-26T08:41:44;100550.00;;;3.83;97.75
61568;BME280;47462;59.172;17.196;2024-02-26T08:44:09;100549.13;;;3.81;96.32
61568;BME280;47462;59.172;17.196;2024-02-26T08:46:35;100562.91;;;3.88;96.80
61568;BME280;47462;59.172;17.196;2024-02-26T08:49:01;100562.00;;;3.89;95.98
61568;BME280;47462;59.172;17.196;2024-02-26T08:51:27;100568.91;;;3.87;96.16
61568;BME280;47462;59.172;17.196;2024-02-26T08:53:53;100568.03;;;3.94;95.98
61568;BME280;47462;59.172;17.196;2024-02-26T08:56:19;100566.25;;;4.10;96.51
61568;BME280;47462;59.172;17.196;2024-02-26T08:58:47;100560.16;;;4.26;95.96
61568;BME280;47462;59.172;17.196;2024-02-26T09:01:14;100567.81;;;4.40;95.46
61568;BME280;47462;59.172;17.196;2024-02-26T09:03:40;100561.72;;;4.54;95.43
61568;BME280;47462;59.172;17.196;2024-02-26T09:06:06;100565.09;;;4.65;95.57
61568;BME280;47462;59.172;17.196;2024-02-26T09:08:32;100563.28;;;4.81;95.43
61568;BME280;47462;59.172;17.196;2024-02-26T09:10:58;100566.63;;;4.92;95.47
61568;BME280;47462;59.172;17.196;2024-02-26T09:13:24;100563.16;;;4.98;95.34
61568;BME280;47462;59.172;17.196;2024-02-26T09:15:50;100569.97;;;5.05;94.97
61568;BME280;47462;59.172;17.196;2024-02-26T09:18:15;100572.50;;;5.11;94.75
61568;BME280;47462;59.172;17.196;2024-02-26T09:20:41;100570.75;;;5.15;94.80
61568;BME280;47462;59.172;17.196;2024-02-26T09:23:07;100574.19;;;5.17;94.30
61568;BME280;47462;59.172;17.196;2024-02-26T09:25:35;100569.84;;;5.17;93.92
61568;BME280;47462;59.172;17.196;2024-02-26T09:28:02;100567.22;;;5.22;94.16
61568;BME280;47462;59.172;17.196;2024-02-26T09:30:30;100565.53;;;5.23;94.00
61568;BME280;47462;59.172;17.196;2024-02-26T09:32:56;100569.81;;;5.24;94.39
61568;BME280;47462;59.172;17.196;2024-02-26T09:35:22;100568.97;;;5.23;94.11
61568;BME280;47462;59.172;17.196;2024-02-26T09:37:47;100568.16;;;5.18;94.38
61568;BME280;47462;59.172;17.196;2024-02-26T09:40:14;100564.63;;;5.24;94.08
61568;BME280;47462;59.172;17.196;2024-02-26T09:42:44;100573.22;;;5.29;94.35
61568;BME280;47462;59.172;17.196;2024-02-26T09:45:12;100574.03;;;5.32;93.73
61568;BME280;47462;59.172;17.196;2024-02-26T09:47:43;100574.91;;;5.34;93.53
61568;BME280;47462;59.172;17.196;2024-02-26T09:50:09;100574.91;;;5.34;93.49
61568;BME280;47462;59.172;17.196;2024-02-26T09:52:39;100571.41;;;5.37;93.93
61568;BME280;47462;59.172;17.196;2024-02-26T09:55:08;100576.53;;;5.43;94.18
61568;BME280;47462;59.172;17.196;2024-02-26T09:57:37;100588.56;;;5.50;94.06
61568;BME280;47462;59.172;17.196;2024-02-26T10:00:10;100580.75;;;5.55;94.40
61568;BME280;47462;59.172;17.196;2024-02-26T10:02:39;100586.69;;;5.62;94.14
61568;BME280;47462;59.172;17.196;2024-02-26T10:05:07;100588.41;;;5.66;94.27
61568;BME280;47462;59.172;17.196;2024-02-26T10:07:36;100581.44;;;5.71;94.10
61568;BME280;47462;59.172;17.196;2024-02-26T10:10:03;100578.81;;;5.72;93.91
61568;BME280;47462;59.172;17.196;2024-02-26T10:12:29;100578.78;;;5.77;93.43
61568;BME280;47462;59.172;17.196;2024-02-26T10:14:56;100574.50;;;5.75;93.24
61568;BME280;47462;59.172;17.196;2024-02-26T10:17:22;100581.41;;;5.72;93.24
61568;BME280;47462;59.172;17.196;2024-02-26T10:19:47;100578.88;;;5.68;92.75
61568;BME280;47462;59.172;17.196;2024-02-26T10:22:13;100582.38;;;5.64;92.95
61568;BME280;47462;59.172;17.196;2024-02-26T10:24:38;100583.16;;;5.70;93.25
61568;BME280;47462;59.172;17.196;2024-02-26T10:27:04;100577.06;;;5.78;93.07
61568;BME280;47462;59.172;17.196;2024-02-26T10:29:31;100574.38;;;5.87;93.21
61568;BME280;47462;59.172;17.196;2024-02-26T10:31:57;100567.38;;;5.94;93.44
61568;BME280;47462;59.172;17.196;2024-02-26T10:34:22;100574.16;;;6.09;93.39
61568;BME280;47462;59.172;17.196;2024-02-26T10:36:49;100567.13;;;6.15;93.51
61568;BME280;47462;59.172;17.196;2024-02-26T10:39:15;100572.19;;;6.24;93.13
61568;BME280;47462;59.172;17.196;2024-02-26T10:41:41;100567.03;;;6.23;92.82
61568;BME280;47462;59.172;17.196;2024-02-26T10:44:09;100571.34;;;6.25;92.97
61568;BME280;47462;59.172;17.196;2024-02-26T10:46:36;100568.69;;;6.29;92.76
61568;BME280;47462;59.172;17.196;2024-02-26T10:49:02;100570.44;;;6.30;92.47
61568;BME280;47462;59.172;17.196;2024-02-26T10:51:29;100564.38;;;6.28;91.94
61568;BME280;47462;59.172;17.196;2024-02-26T10:53:57;100568.63;;;6.35;91.78
61568;BME280;47462;59.172;17.196;2024-02-26T10:56:25;100566.81;;;6.40;91.52
61568;BME280;47462;59.172;17.196;2024-02-26T10:58:53;100567.69;;;6.40;91.44
61568;BME280;47462;59.172;17.196;2024-02-26T11:01:19;100565.94;;;6.41;91.23
61568;BME280;47462;59.172;17.196;2024-02-26T11:03:47;100561.66;;;6.37;90.64
61568;BME280;47462;59.172;17.196;2024-02-26T11:06:14;100564.34;;;6.31;90.66
61568;BME280;47462;59.172;17.196;2024-02-26T11:08:40;100565.19;;;6.33;91.25
61568;BME280;47462;59.172;17.196;2024-02-26T11:11:06;100566.03;;;6.35;91.13
61568;BME280;47462;59.172;17.196;2024-02-26T11:13:33;100571.25;;;6.32;90.62
61568;BME280;47462;59.172;17.196;2024-02-26T11:16:00;100575.56;;;6.34;90.91
61568;BME280;47462;59.172;17.196;2024-02-26T11:18:27;100580.66;;;6.39;90.91
61568;BME280;47462;59.172;17.196;2024-02-26T11:20:52;100577.13;;;6.43;90.37
61568;BME280;47462;59.172;17.196;2024-02-26T11:23:21;100586.72;;;6.38;90.22
61568;BME280;47462;59.172;17.196;2024-02-26T11:25:47;100581.56;;;6.36;89.80
61568;BME280;47462;59.172;17.196;2024-02-26T11:28:16;100593.63;;;6.39;89.84
61568;BME280;47462;59.172;17.196;2024-02-26T11:30:45;100592.69;;;6.43;89.65
61568;BME280;47462;59.172;17.196;2024-02-26T11:33:12;100596.97;;;6.47;89.67
61568;BME280;47462;59.172;17.196;2024-02-26T11:35:39;100593.44;;;6.53;89.07
61568;BME280;47462;59.172;17.196;2024-02-26T11:38:05;100590.56;;;6.73;88.64
61568;BME280;47462;59.172;17.196;2024-02-26T11:40:33;100591.91;;;6.99;88.54
61568;BME280;47462;59.172;17.196;2024-02-26T11:42:59;100592.50;;;7.16;87.62
61568;BME280;47462;59.172;17.196;2024-02-26T11:48:15;100584.19;;;7.45;85.70
61568;BME280;47462;59.172;17.196;2024-02-26T11:50:45;100586.88;;;7.41;84.89
61568;BME280;47462;59.172;17.196;2024-02-26T11:53:25;100588.78;;;7.31;84.52
61568;BME280;47462;59.172;17.196;2024-02-26T11:58:45;100601.06;;;7.20;85.64
61568;BME280;47462;59.172;17.196;2024-02-26T12:01:48;100592.41;;;7.21;86.02
61568;BME280;47462;59.172;17.196;2024-02-26T12:04:19;100603.72;;;7.17;86.12
61568;BME280;47462;59.172;17.196;2024-02-26T12:09:11;100607.44;;;7.02;86.13
61568;BME280;47462;59.172;17.196;2024-02-26T12:11:39;100604.97;;;6.94;86.12
61568;BME280;47462;59.172;17.196;2024-02-26T12:14:08;100601.66;;;6.83;85.93
61568;BME280;47462;59.172;17.196;2024-02-26T12:16:40;100609.69;;;6.66;85.73
61568;BME280;47462;59.172;17.196;2024-02-26T12:19:09;100613.34;;;6.49;85.97
61568;BME280;47462;59.172;17.196;2024-02-26T12:21:35;100615.25;;;6.38;86.59
61568;BME280;47462;59.172;17.196;2024-02-26T12:24:14;100617.09;;;6.28;86.99
61568;BME280;47462;59.172;17.196;2024-02-26T12:26:41;100617.25;;;6.14;87.15
61568;BME280;47462;59.172;17.196;2024-02-26T12:29:07;100616.47;;;6.07;87.50
61568;BME280;47462;59.172;17.196;2024-02-26T12:31:33;100614.81;;;6.02;88.11
61568;BME280;47462;59.172;17.196;2024-02-26T12:34:00;100626.91;;;6.00;88.38
61568;BME280;47462;59.172;17.196;2024-02-26T12:36:26;100628.66;;;5.96;88.13
61568;BME280;47462;59.172;17.196;2024-02-26T12:38:52;100637.34;;;5.90;88.41
61568;BME280;47462;59.172;17.196;2024-02-26T12:41:17;100635.59;;;5.91;89.10
61568;BME280;47462;59.172;17.196;2024-02-26T12:43:43;100637.34;;;5.89;89.20
61568;BME280;47462;59.172;17.196;2024-02-26T12:46:08;100636.50;;;5.90;89.71
61568;BME280;47462;59.172;17.196;2024-02-26T12:48:34;100644.19;;;5.96;89.11
61568;BME280;47462;59.172;17.196;2024-02-26T12:50:59;100626.09;;;5.98;89.09
61568;BME280;47462;59.172;17.196;2024-02-26T12:53:26;100640.78;;;5.94;89.66
61568;BME280;47462;59.172;17.196;2024-02-26T12:55:53;100639.91;;;5.94;89.72
61568;BME280;47462;59.172;17.196;2024-02-26T12:58:19;100648.53;;;5.96;89.86
61568;BME280;47462;59.172;17.196;2024-02-26T13:00:45;100648.53;;;5.96;89.82
61568;BME280;47462;59.172;17.196;2024-02-26T13:03:11;100658.03;;;5.92;89.87
61568;BME280;47462;59.172;17.196;2024-02-26T13:05:37;100659.78;;;5.92;89.79
61568;BME280;47462;59.172;17.196;2024-02-26T13:08:03;100658.91;;;5.93;90.23
61568;BME280;47462;59.172;17.196;2024-02-26T13:10:29;100659.75;;;5.95;90.38